sensor_id;sensor_type;location;lat;lon;timestamp;temperature;humidity
28520;DHT22;15732;48.534;20.382;2023-03-01T00:01:38;1.30;99.90
28520;DHT22;15732;48.534;20.382;2023-03-01T00:04:05;1.30;99.90
28520;DHT22;15732;48.534;20.382;2023-03-01T00:06:32;1.30;99.90
28520;DHT22;15732;48.534;20.382;2023-03-01T00:09:03;1.40;99.90
28520;DHT22;15732;48.534;20.382;2023-03-01T00:11:32;1.40;99.90
28520;DHT22;15732;48.534;20.382;2023-03-01T00:14:01;1.30;99.90
28520;DHT22;15732;48.534;20.382;2023-03-01T00:16:30;1.30;99.90
28520;DHT22;15732;48.534;20.382;2023-03-01T00:18:58;1.30;99.90
28520;DHT22;15732;48.534;20.382;2023-03-01T00:21:29;1.20;99.90
28520;DHT22;15732;48.534;20.382;2023-03-01T00:23:56;1.30;99.90
28520;DHT22;15732;48.534;20.382;2023-03-01T00:26:25;1.30;99.90
28520;DHT22;15732;48.534;20.382;2023-03-01T00:28:52;1.40;99.90
28520;DHT22;15732;48.534;20.382;2023-03-01T00:31:29;1.40;99.90
28520;DHT22;15732;48.534;20.382;2023-03-01T00:34:16;1.40;99.90
28520;DHT22;15732;48.534;20.382;2023-03-01T00:36:44;1.50;99.90
28520;DHT22;15732;48.534;20.382;2023-03-01T00:39:14;1.50;99.90
28520;DHT22;15732;48.534;20.382;2023-03-01T00:41:45;1.50;99.90
28520;DHT22;15732;48.534;20.382;2023-03-01T00:44:13;1.60;99.90
28520;DHT22;15732;48.534;20.382;2023-03-01T00:46:40;1.50;99.90
28520;DHT22;15732;48.534;20.382;2023-03-01T00:49:08;1.50;99.90
28520;DHT22;15732;48.534;20.382;2023-03-01T00:51:35;1.50;99.90
28520;DHT22;15732;48.534;20.382;2023-03-01T00:54:09;1.40;99.90
28520;DHT22;15732;48.534;20.382;2023-03-01T00:56:40;1.30;99.90
28520;DHT22;15732;48.534;20.382;2023-03-01T00:59:08;1.10;99.90
28520;DHT22;15732;48.534;20.382;2023-03-01T01:01:35;0.90;99.90
28520;DHT22;15732;48.534;20.382;2023-03-01T01:04:05;0.80;99.90
28520;DHT22;15732;48.534;20.382;2023-03-01T01:06:44;0.40;99.90
28520;DHT22;15732;48.534;20.382;2023-03-01T01:09:14;0.30;99.90
28520;DHT22;15732;48.534;20.382;2023-03-01T01:11:51;0.20;99.90
28520;DHT22;15732;48.534;20.382;2023-03-01T01:14:19;0.30;99.90
28520;DHT22;15732;48.534;20.382;2023-03-01T01:16:46;0.30;99.90
28520;DHT22;15732;48.534;20.382;2023-03-01T01:19:14;0.10;99.90
28520;DHT22;15732;48.534;20.382;2023-03-01T01:21:41;0.20;99.90
28520;DHT22;15732;48.534;20.382;2023-03-01T01:24:09;0.30;99.90
28520;DHT22;15732;48.534;20.382;2023-03-01T01:26:41;0.40;99.90
28520;DHT22;15732;48.534;20.382;2023-03-01T01:29:09;0.40;99.90
28520;DHT22;15732;48.534;20.382;2023-03-01T01:31:37;0.40;99.90
28520;DHT22;15732;48.534;20.382;2023-03-01T01:34:07;0.50;99.90
28520;DHT22;15732;48.534;20.382;2023-03-01T01:36:35;0.60;99.90
28520;DHT22;15732;48.534;20.382;2023-03-01T01:39:02;0.60;99.90
28520;DHT22;15732;48.534;20.382;2023-03-01T01:41:33;0.60;99.90
28520;DHT22;15732;48.534;20.382;2023-03-01T01:46:41;0.60;99.90
28520;DHT22;15732;48.534;20.382;2023-03-01T01:51:48;0.20;99.90
28520;DHT22;15732;48.534;20.382;2023-03-01T01:57:13;0.10;99.90
28520;DHT22;15732;48.534;20.382;2023-03-01T01:59:43;0.10;99.90
28520;DHT22;15732;48.534;20.382;2023-03-01T02:02:13;0.20;99.90
28520;DHT22;15732;48.534;20.382;2023-03-01T02:04:40;0.20;99.90
28520;DHT22;15732;48.534;20.382;2023-03-01T02:07:20;0.10;99.90
28520;DHT22;15732;48.534;20.382;2023-03-01T02:09:48;0.10;99.90
28520;DHT22;15732;48.534;20.382;2023-03-01T02:12:18;0.10;99.90
28520;DHT22;15732;48.534;20.382;2023-03-01T02:14:46;0.10;99.90
28520;DHT22;15732;48.534;20.382;2023-03-01T02:17:15;0.10;99.90
28520;DHT22;15732;48.534;20.382;2023-03-01T02:19:50;0.10;99.90
28520;DHT22;15732;48.534;20.382;2023-03-01T02:22:24;0.00;99.90
28520;DHT22;15732;48.534;20.382;2023-03-01T02:25:20;-0.10;99.90
28520;DHT22;15732;48.534;20.382;2023-03-01T02:30:22;-0.20;99.90
28520;DHT22;15732;48.534;20.382;2023-03-01T02:32:56;-0.20;99.90
28520;DHT22;15732;48.534;20.382;2023-03-01T02:35:32;-0.20;99.90
28520;DHT22;15732;48.534;20.382;2023-03-01T02:38:05;-0.30;99.90
28520;DHT22;15732;48.534;20.382;2023-03-01T02:40:34;-0.20;99.90
28520;DHT22;15732;48.534;20.382;2023-03-01T02:43:06;-0.20;99.90
28520;DHT22;15732;48.534;20.382;2023-03-01T02:45:35;-0.20;99.90
28520;DHT22;15732;48.534;20.382;2023-03-01T02:48:03;-0.20;99.90
28520;DHT22;15732;48.534;20.382;2023-03-01T02:53:15;0.00;99.90
28520;DHT22;15732;48.534;20.382;2023-03-01T02:55:44;0.00;99.90
28520;DHT22;15732;48.534;20.382;2023-03-01T02:58:11;0.00;99.90
28520;DHT22;15732;48.534;20.382;2023-03-01T03:00:42;-0.10;99.90
28520;DHT22;15732;48.534;20.382;2023-03-01T03:03:19;0.00;99.90
28520;DHT22;15732;48.534;20.382;2023-03-01T03:05:47;-0.10;99.90
28520;DHT22;15732;48.534;20.382;2023-03-01T03:08:18;-0.20;99.90
28520;DHT22;15732;48.534;20.382;2023-03-01T03:10:50;-0.20;99.90
28520;DHT22;15732;48.534;20.382;2023-03-01T03:13:21;-0.20;99.90
28520;DHT22;15732;48.534;20.382;2023-03-01T03:15:48;-0.10;99.90
28520;DHT22;15732;48.534;20.382;2023-03-01T03:18:16;-0.10;99.90
28520;DHT22;15732;48.534;20.382;2023-03-01T03:20:44;0.00;99.90
28520;DHT22;15732;48.534;20.382;2023-03-01T03:23:12;0.00;99.90
28520;DHT22;15732;48.534;20.382;2023-03-01T03:25:40;0.00;99.90
28520;DHT22;15732;48.534;20.382;2023-03-01T03:28:11;0.00;99.90
28520;DHT22;15732;48.534;20.382;2023-03-01T03:30:39;0.00;99.90
28520;DHT22;15732;48.534;20.382;2023-03-01T03:33:06;0.00;99.90
28520;DHT22;15732;48.534;20.382;2023-03-01T03:35:46;0.10;99.90
28520;DHT22;15732;48.534;20.382;2023-03-01T03:38:18;0.00;99.90
28520;DHT22;15732;48.534;20.382;2023-03-01T03:40:51;0.10;99.90
28520;DHT22;15732;48.534;20.382;2023-03-01T03:43:22;0.10;99.90
28520;DHT22;15732;48.534;20.382;2023-03-01T03:45:50;0.20;99.90
28520;DHT22;15732;48.534;20.382;2023-03-01T03:48:21;0.30;99.90
28520;DHT22;15732;48.534;20.382;2023-03-01T03:50:54;0.30;99.90
28520;DHT22;15732;48.534;20.382;2023-03-01T03:53:23;0.30;99.90
28520;DHT22;15732;48.534;20.382;2023-03-01T03:55:55;0.30;99.90
28520;DHT22;15732;48.534;20.382;2023-03-01T03:58:27;0.30;99.90
28520;DHT22;15732;48.534;20.382;2023-03-01T04:00:58;0.30;99.90
28520;DHT22;15732;48.534;20.382;2023-03-01T04:03:31;0.30;99.90
28520;DHT22;15732;48.534;20.382;2023-03-01T04:05:59;0.30;99.90
28520;DHT22;15732;48.534;20.382;2023-03-01T04:08:27;0.40;99.90
28520;DHT22;15732;48.534;20.382;2023-03-01T04:10:59;0.30;99.90
28520;DHT22;15732;48.534;20.382;2023-03-01T04:13:27;0.30;99.90
28520;DHT22;15732;48.534;20.382;2023-03-01T04:15:58;0.30;99.90
28520;DHT22;15732;48.534;20.382;2023-03-01T04:18:30;0.30;99.90
28520;DHT22;15732;48.534;20.382;2023-03-01T04:20:57;0.30;99.90
28520;DHT22;15732;48.534;20.382;2023-03-01T04:23:25;0.30;99.90
28520;DHT22;15732;48.534;20.382;2023-03-01T04:25:52;0.30;99.90
28520;DHT22;15732;48.534;20.382;2023-03-01T04:28:26;0.20;99.90
28520;DHT22;15732;48.534;20.382;2023-03-01T04:30:56;0.20;99.90
28520;DHT22;15732;48.534;20.382;2023-03-01T04:33:25;0.20;99.90
28520;DHT22;15732;48.534;20.382;2023-03-01T04:35:52;0.10;99.90
28520;DHT22;15732;48.534;20.382;2023-03-01T04:38:19;0.10;99.90
28520;DHT22;15732;48.534;20.382;2023-03-01T04:40:51;0.10;99.90
28520;DHT22;15732;48.534;20.382;2023-03-01T04:43:22;0.20;99.90
28520;DHT22;15732;48.534;20.382;2023-03-01T04:45:49;0.10;99.90
28520;DHT22;15732;48.534;20.382;2023-03-01T04:48:17;0.10;99.90
28520;DHT22;15732;48.534;20.382;2023-03-01T04:50:44;0.10;99.90
28520;DHT22;15732;48.534;20.382;2023-03-01T04:53:12;0.10;99.90
28520;DHT22;15732;48.534;20.382;2023-03-01T04:55:39;0.10;99.90
28520;DHT22;15732;48.534;20.382;2023-03-01T04:58:07;0.10;99.90
28520;DHT22;15732;48.534;20.382;2023-03-01T05:00:34;0.20;99.90
28520;DHT22;15732;48.534;20.382;2023-03-01T05:03:02;0.20;99.90
28520;DHT22;15732;48.534;20.382;2023-03-01T05:07:57;0.30;99.90
28520;DHT22;15732;48.534;20.382;2023-03-01T05:10:26;0.30;99.90
28520;DHT22;15732;48.534;20.382;2023-03-01T05:13:01;0.40;99.90
28520;DHT22;15732;48.534;20.382;2023-03-01T05:15:29;0.30;99.90
28520;DHT22;15732;48.534;20.382;2023-03-01T05:17:58;0.40;99.90
28520;DHT22;15732;48.534;20.382;2023-03-01T05:20:26;0.50;99.90
28520;DHT22;15732;48.534;20.382;2023-03-01T05:22:59;0.40;99.90
28520;DHT22;15732;48.534;20.382;2023-03-01T05:25:26;0.40;99.90
28520;DHT22;15732;48.534;20.382;2023-03-01T05:28:03;0.40;99.90
28520;DHT22;15732;48.534;20.382;2023-03-01T05:30:31;0.50;99.90
28520;DHT22;15732;48.534;20.382;2023-03-01T05:32:58;0.50;99.90
28520;DHT22;15732;48.534;20.382;2023-03-01T05:35:29;0.60;99.90
28520;DHT22;15732;48.534;20.382;2023-03-01T05:37:58;0.60;99.90
28520;DHT22;15732;48.534;20.382;2023-03-01T05:40:26;0.60;99.90
28520;DHT22;15732;48.534;20.382;2023-03-01T05:42:55;0.60;99.90
28520;DHT22;15732;48.534;20.382;2023-03-01T05:45:27;0.60;99.90
28520;DHT22;15732;48.534;20.382;2023-03-01T05:47:54;0.40;99.90
28520;DHT22;15732;48.534;20.382;2023-03-01T05:50:44;0.40;99.90
28520;DHT22;15732;48.534;20.382;2023-03-01T05:53:18;0.50;99.90
28520;DHT22;15732;48.534;20.382;2023-03-01T05:55:49;0.50;99.90
28520;DHT22;15732;48.534;20.382;2023-03-01T05:58:19;0.40;99.90
28520;DHT22;15732;48.534;20.382;2023-03-01T06:00:50;0.40;99.90
28520;DHT22;15732;48.534;20.382;2023-03-01T06:03:22;0.50;99.90
28520;DHT22;15732;48.534;20.382;2023-03-01T06:05:56;0.60;99.90
28520;DHT22;15732;48.534;20.382;2023-03-01T06:08:28;0.60;99.90
28520;DHT22;15732;48.534;20.382;2023-03-01T06:10:59;0.60;99.90
28520;DHT22;15732;48.534;20.382;2023-03-01T06:13:31;0.60;99.90
28520;DHT22;15732;48.534;20.382;2023-03-01T06:15:58;0.60;99.90
28520;DHT22;15732;48.534;20.382;2023-03-01T06:18:26;0.60;99.90
28520;DHT22;15732;48.534;20.382;2023-03-01T06:20:54;0.60;99.90
28520;DHT22;15732;48.534;20.382;2023-03-01T06:23:22;0.70;99.90
28520;DHT22;15732;48.534;20.382;2023-03-01T06:25:49;0.70;99.90
28520;DHT22;15732;48.534;20.382;2023-03-01T06:28:20;0.70;99.90
28520;DHT22;15732;48.534;20.382;2023-03-01T06:30:51;0.80;99.90
28520;DHT22;15732;48.534;20.382;2023-03-01T06:33:19;0.90;99.90
28520;DHT22;15732;48.534;20.382;2023-03-01T06:35:51;1.00;99.90
28520;DHT22;15732;48.534;20.382;2023-03-01T06:38:24;1.00;99.90
28520;DHT22;15732;48.534;20.382;2023-03-01T06:40:55;1.00;99.90
28520;DHT22;15732;48.534;20.382;2023-03-01T06:43:23;1.10;99.90
28520;DHT22;15732;48.534;20.382;2023-03-01T06:45:50;1.10;99.90
28520;DHT22;15732;48.534;20.382;2023-03-01T06:48:18;1.00;99.90
28520;DHT22;15732;48.534;20.382;2023-03-01T06:50:45;1.00;99.90
28520;DHT22;15732;48.534;20.382;2023-03-01T06:53:13;1.00;99.90
28520;DHT22;15732;48.534;20.382;2023-03-01T06:55:41;1.00;99.90
28520;DHT22;15732;48.534;20.382;2023-03-01T06:58:12;0.90;99.90
28520;DHT22;15732;48.534;20.382;2023-03-01T07:00:39;1.00;99.90
28520;DHT22;15732;48.534;20.382;2023-03-01T07:03:07;1.10;99.90
28520;DHT22;15732;48.534;20.382;2023-03-01T07:05:39;1.10;99.90
28520;DHT22;15732;48.534;20.382;2023-03-01T07:08:06;1.10;99.90
28520;DHT22;15732;48.534;20.382;2023-03-01T07:10:36;1.10;99.90
28520;DHT22;15732;48.534;20.382;2023-03-01T07:13:04;1.10;99.90
28520;DHT22;15732;48.534;20.382;2023-03-01T07:15:33;1.10;99.90
28520;DHT22;15732;48.534;20.382;2023-03-01T07:18:00;1.20;99.90
28520;DHT22;15732;48.534;20.382;2023-03-01T07:20:27;1.30;99.90
28520;DHT22;15732;48.534;20.382;2023-03-01T07:22:55;1.30;99.90
28520;DHT22;15732;48.534;20.382;2023-03-01T07:25:24;1.40;99.90
28520;DHT22;15732;48.534;20.382;2023-03-01T07:27:52;1.40;99.90
28520;DHT22;15732;48.534;20.382;2023-03-01T07:30:20;1.60;99.90
28520;DHT22;15732;48.534;20.382;2023-03-01T07:32:47;1.70;99.90
28520;DHT22;15732;48.534;20.382;2023-03-01T07:35:18;1.80;99.90
28520;DHT22;15732;48.534;20.382;2023-03-01T07:37:50;1.90;99.90
28520;DHT22;15732;48.534;20.382;2023-03-01T07:40:21;2.10;99.90
28520;DHT22;15732;48.534;20.382;2023-03-01T07:42:48;2.20;99.90
28520;DHT22;15732;48.534;20.382;2023-03-01T07:45:16;2.30;99.90
28520;DHT22;15732;48.534;20.382;2023-03-01T07:47:47;2.40;99.90
28520;DHT22;15732;48.534;20.382;2023-03-01T07:50:15;2.50;99.90
28520;DHT22;15732;48.534;20.382;2023-03-01T07:52:45;2.60;99.90
28520;DHT22;15732;48.534;20.382;2023-03-01T07:55:12;2.60;99.90
28520;DHT22;15732;48.534;20.382;2023-03-01T07:57:40;2.80;99.90
28520;DHT22;15732;48.534;20.382;2023-03-01T08:00:09;2.80;99.90
28520;DHT22;15732;48.534;20.382;2023-03-01T08:02:36;2.90;99.90
28520;DHT22;15732;48.534;20.382;2023-03-01T08:05:03;3.10;99.90
28520;DHT22;15732;48.534;20.382;2023-03-01T08:07:32;3.10;99.90
28520;DHT22;15732;48.534;20.382;2023-03-01T08:10:10;3.20;99.90
28520;DHT22;15732;48.534;20.382;2023-03-01T08:12:38;3.30;99.90
28520;DHT22;15732;48.534;20.382;2023-03-01T08:15:07;3.40;99.90
28520;DHT22;15732;48.534;20.382;2023-03-01T08:17:36;3.60;99.90
28520;DHT22;15732;48.534;20.382;2023-03-01T08:20:04;3.70;99.90
28520;DHT22;15732;48.534;20.382;2023-03-01T08:22:33;3.80;99.90
28520;DHT22;15732;48.534;20.382;2023-03-01T08:25:01;3.90;99.90
28520;DHT22;15732;48.534;20.382;2023-03-01T08:27:28;4.10;99.90
28520;DHT22;15732;48.534;20.382;2023-03-01T08:29:55;4.20;99.90
28520;DHT22;15732;48.534;20.382;2023-03-01T08:32:23;4.30;99.90
28520;DHT22;15732;48.534;20.382;2023-03-01T08:34:50;4.40;99.90
28520;DHT22;15732;48.534;20.382;2023-03-01T08:37:21;4.60;99.90
28520;DHT22;15732;48.534;20.382;2023-03-01T08:39:49;4.60;99.90
28520;DHT22;15732;48.534;20.382;2023-03-01T08:42:16;4.70;99.90
28520;DHT22;15732;48.534;20.382;2023-03-01T08:44:44;4.80;99.90
28520;DHT22;15732;48.534;20.382;2023-03-01T08:47:11;4.90;99.90
28520;DHT22;15732;48.534;20.382;2023-03-01T08:49:42;5.00;99.90
28520;DHT22;15732;48.534;20.382;2023-03-01T08:52:09;5.10;99.90
28520;DHT22;15732;48.534;20.382;2023-03-01T08:54:37;5.20;99.90
28520;DHT22;15732;48.534;20.382;2023-03-01T08:57:04;5.20;99.90
28520;DHT22;15732;48.534;20.382;2023-03-01T08:59:36;5.30;99.90
28520;DHT22;15732;48.534;20.382;2023-03-01T09:02:05;5.40;99.90
28520;DHT22;15732;48.534;20.382;2023-03-01T09:04:32;5.40;99.90
28520;DHT22;15732;48.534;20.382;2023-03-01T09:07:03;5.40;99.90
28520;DHT22;15732;48.534;20.382;2023-03-01T09:09:34;5.50;99.90
28520;DHT22;15732;48.534;20.382;2023-03-01T09:12:02;5.60;99.90
28520;DHT22;15732;48.534;20.382;2023-03-01T09:14:29;5.70;99.90
28520;DHT22;15732;48.534;20.382;2023-03-01T09:16:57;5.70;99.90
28520;DHT22;15732;48.534;20.382;2023-03-01T09:19:32;5.80;99.90
28520;DHT22;15732;48.534;20.382;2023-03-01T09:21:59;5.90;99.90
28520;DHT22;15732;48.534;20.382;2023-03-01T09:24:26;6.00;99.90
28520;DHT22;15732;48.534;20.382;2023-03-01T09:26:57;6.10;99.90
28520;DHT22;15732;48.534;20.382;2023-03-01T09:29:24;6.10;99.90
28520;DHT22;15732;48.534;20.382;2023-03-01T09:31:56;6.20;99.90
28520;DHT22;15732;48.534;20.382;2023-03-01T09:34:27;6.20;99.90
28520;DHT22;15732;48.534;20.382;2023-03-01T09:36:56;6.30;99.90
28520;DHT22;15732;48.534;20.382;2023-03-01T09:39:23;6.40;99.90
28520;DHT22;15732;48.534;20.382;2023-03-01T09:42:02;6.50;99.90
28520;DHT22;15732;48.534;20.382;2023-03-01T09:47:00;6.70;99.90
28520;DHT22;15732;48.534;20.382;2023-03-01T09:49:36;6.90;99.90
28520;DHT22;15732;48.534;20.382;2023-03-01T09:52:36;7.10;99.90
28520;DHT22;15732;48.534;20.382;2023-03-01T09:55:14;7.20;99.90
28520;DHT22;15732;48.534;20.382;2023-03-01T09:57:53;7.20;99.90
28520;DHT22;15732;48.534;20.382;2023-03-01T10:00:33;7.30;99.90
28520;DHT22;15732;48.534;20.382;2023-03-01T10:03:26;7.50;99.90
28520;DHT22;15732;48.534;20.382;2023-03-01T10:06:27;7.60;99.90
28520;DHT22;15732;48.534;20.382;2023-03-01T10:09:12;7.70;99.90
28520;DHT22;15732;48.534;20.382;2023-03-01T10:11:47;7.80;99.90
28520;DHT22;15732;48.534;20.382;2023-03-01T10:14:43;8.00;99.90
28520;DHT22;15732;48.534;20.382;2023-03-01T10:17:46;8.00;99.90
28520;DHT22;15732;48.534;20.382;2023-03-01T10:20:24;8.10;99.90
28520;DHT22;15732;48.534;20.382;2023-03-01T10:22:52;8.20;99.90
28520;DHT22;15732;48.534;20.382;2023-03-01T10:31:19;8.50;99.90
28520;DHT22;15732;48.534;20.382;2023-03-01T10:33:48;8.50;99.90
28520;DHT22;15732;48.534;20.382;2023-03-01T10:36:22;8.60;99.90
28520;DHT22;15732;48.534;20.382;2023-03-01T10:38:54;8.60;99.90
28520;DHT22;15732;48.534;20.382;2023-03-01T10:41:22;8.70;99.90
28520;DHT22;15732;48.534;20.382;2023-03-01T10:43:52;8.70;99.90
28520;DHT22;15732;48.534;20.382;2023-03-01T10:46:30;8.80;99.90
28520;DHT22;15732;48.534;20.382;2023-03-01T10:49:20;8.80;99.90
28520;DHT22;15732;48.534;20.382;2023-03-01T10:51:52;8.90;99.90
28520;DHT22;15732;48.534;20.382;2023-03-01T10:54:21;8.90;99.90
28520;DHT22;15732;48.534;20.382;2023-03-01T10:56:57;9.00;99.90
28520;DHT22;15732;48.534;20.382;2023-03-01T11:04:37;9.10;99.90
28520;DHT22;15732;48.534;20.382;2023-03-01T11:07:05;9.10;99.90
28520;DHT22;15732;48.534;20.382;2023-03-01T11:09:36;9.20;99.90
28520;DHT22;15732;48.534;20.382;2023-03-01T11:12:15;9.20;99.90
28520;DHT22;15732;48.534;20.382;2023-03-01T11:14:51;9.20;99.90
28520;DHT22;15732;48.534;20.382;2023-03-01T11:17:31;9.30;99.90
28520;DHT22;15732;48.534;20.382;2023-03-01T11:23:03;9.30;99.90
28520;DHT22;15732;48.534;20.382;2023-03-01T11:25:38;9.30;99.90
28520;DHT22;15732;48.534;20.382;2023-03-01T11:28:30;9.40;99.90
28520;DHT22;15732;48.534;20.382;2023-03-01T11:31:10;9.40;99.90
28520;DHT22;15732;48.534;20.382;2023-03-01T11:36:34;9.40;99.90
28520;DHT22;15732;48.534;20.382;2023-03-01T11:39:27;9.40;99.90
28520;DHT22;15732;48.534;20.382;2023-03-01T11:42:15;9.50;99.90
28520;DHT22;15732;48.534;20.382;2023-03-01T11:44:46;9.50;99.90
28520;DHT22;15732;48.534;20.382;2023-03-01T11:55:35;9.40;99.90
28520;DHT22;15732;48.534;20.382;2023-03-01T12:01:11;9.40;99.90
28520;DHT22;15732;48.534;20.382;2023-03-01T12:12:51;9.40;99.90
28520;DHT22;15732;48.534;20.382;2023-03-01T12:26:42;9.50;99.90
28520;DHT22;15732;48.534;20.382;2023-03-01T12:37:54;9.60;99.90
28520;DHT22;15732;48.534;20.382;2023-03-01T12:48:24;9.70;99.90
28520;DHT22;15732;48.534;20.382;2023-03-01T12:50:59;9.80;99.90
28520;DHT22;15732;48.534;20.382;2023-03-01T12:53:48;9.80;99.90
28520;DHT22;15732;48.534;20.382;2023-03-01T12:56:27;9.90;99.90
28520;DHT22;15732;48.534;20.382;2023-03-01T13:02:34;10.00;99.90
28520;DHT22;15732;48.534;20.382;2023-03-01T13:10:49;10.00;99.90
28520;DHT22;15732;48.534;20.382;2023-03-01T13:13:24;10.10;99.90
28520;DHT22;15732;48.534;20.382;2023-03-01T13:15:52;10.00;99.90
28520;DHT22;15732;48.534;20.382;2023-03-01T13:20:47;10.00;99.90
28520;DHT22;15732;48.534;20.382;2023-03-01T13:31:06;10.10;99.90
28520;DHT22;15732;48.534;20.382;2023-03-01T13:34:00;10.10;99.90
28520;DHT22;15732;48.534;20.382;2023-03-01T13:39:02;10.20;99.90
28520;DHT22;15732;48.534;20.382;2023-03-01T13:47:14;10.10;99.90
28520;DHT22;15732;48.534;20.382;2023-03-01T13:49:56;10.10;99.90
28520;DHT22;15732;48.534;20.382;2023-03-01T13:55:42;10.20;99.90
28520;DHT22;15732;48.534;20.382;2023-03-01T13:58:32;10.10;99.90
28520;DHT22;15732;48.534;20.382;2023-03-01T14:01:06;10.20;99.90
28520;DHT22;15732;48.534;20.382;2023-03-01T14:03:41;10.20;99.90
28520;DHT22;15732;48.534;20.382;2023-03-01T14:06:18;10.10;99.90
28520;DHT22;15732;48.534;20.382;2023-03-01T14:08:48;10.10;99.90
28520;DHT22;15732;48.534;20.382;2023-03-01T14:19:45;10.10;99.90
28520;DHT22;15732;48.534;20.382;2023-03-01T14:22:27;10.10;99.90
28520;DHT22;15732;48.534;20.382;2023-03-01T14:24:56;10.10;99.90
28520;DHT22;15732;48.534;20.382;2023-03-01T14:27:32;10.20;99.90
28520;DHT22;15732;48.534;20.382;2023-03-01T14:30:02;10.20;99.90
28520;DHT22;15732;48.534;20.382;2023-03-01T14:32:31;10.20;99.90
28520;DHT22;15732;48.534;20.382;2023-03-01T14:34:59;10.20;99.90
28520;DHT22;15732;48.534;20.382;2023-03-01T14:37:32;10.10;99.90
28520;DHT22;15732;48.534;20.382;2023-03-01T14:40:01;10.10;99.90
28520;DHT22;15732;48.534;20.382;2023-03-01T14:42:34;10.10;99.90
28520;DHT22;15732;48.534;20.382;2023-03-01T14:45:04;10.10;99.90
28520;DHT22;15732;48.534;20.382;2023-03-01T14:47:35;10.10;99.90
28520;DHT22;15732;48.534;20.382;2023-03-01T14:50:20;10.10;99.90
28520;DHT22;15732;48.534;20.382;2023-03-01T14:52:50;10.10;99.90
28520;DHT22;15732;48.534;20.382;2023-03-01T14:55:25;10.10;99.90
28520;DHT22;15732;48.534;20.382;2023-03-01T14:57:52;10.10;99.90
28520;DHT22;15732;48.534;20.382;2023-03-01T15:00:25;10.10;99.90
28520;DHT22;15732;48.534;20.382;2023-03-01T15:02:54;10.10;99.90
28520;DHT22;15732;48.534;20.382;2023-03-01T15:05:31;10.00;99.90
28520;DHT22;15732;48.534;20.382;2023-03-01T15:08:01;10.00;99.90
28520;DHT22;15732;48.534;20.382;2023-03-01T15:10:32;10.00;99.90
28520;DHT22;15732;48.534;20.382;2023-03-01T15:13:23;10.00;99.90
28520;DHT22;15732;48.534;20.382;2023-03-01T15:15:51;10.00;99.90
28520;DHT22;15732;48.534;20.382;2023-03-01T15:18:25;9.90;99.90
28520;DHT22;15732;48.534;20.382;2023-03-01T15:20:54;10.00;99.90
28520;DHT22;15732;48.534;20.382;2023-03-01T15:25:49;9.90;99.90
28520;DHT22;15732;48.534;20.382;2023-03-01T15:28:43;9.80;99.90
28520;DHT22;15732;48.534;20.382;2023-03-01T15:31:25;9.80;99.90
28520;DHT22;15732;48.534;20.382;2023-03-01T15:33:53;9.80;99.90
28520;DHT22;15732;48.534;20.382;2023-03-01T15:36:41;9.80;99.90
28520;DHT22;15732;48.534;20.382;2023-03-01T15:41:59;9.70;99.90
28520;DHT22;15732;48.534;20.382;2023-03-01T15:44:31;9.60;99.90
28520;DHT22;15732;48.534;20.382;2023-03-01T15:46:59;9.60;99.90
28520;DHT22;15732;48.534;20.382;2023-03-01T15:49:36;9.60;99.90
28520;DHT22;15732;48.534;20.382;2023-03-01T15:52:04;9.60;99.90
28520;DHT22;15732;48.534;20.382;2023-03-01T15:54:31;9.50;99.90
28520;DHT22;15732;48.534;20.382;2023-03-01T15:57:00;9.50;99.90
28520;DHT22;15732;48.534;20.382;2023-03-01T15:59:32;9.50;99.90
28520;DHT22;15732;48.534;20.382;2023-03-01T16:01:59;9.40;99.90
28520;DHT22;15732;48.534;20.382;2023-03-01T16:04:31;9.40;99.90
28520;DHT22;15732;48.534;20.382;2023-03-01T16:07:02;9.30;99.90
28520;DHT22;15732;48.534;20.382;2023-03-01T16:09:30;9.30;99.90
28520;DHT22;15732;48.534;20.382;2023-03-01T16:11:57;9.30;99.90
28520;DHT22;15732;48.534;20.382;2023-03-01T16:14:28;9.20;99.90
28520;DHT22;15732;48.534;20.382;2023-03-01T16:16:56;9.10;99.90
28520;DHT22;15732;48.534;20.382;2023-03-01T16:19:27;9.10;99.90
28520;DHT22;15732;48.534;20.382;2023-03-01T16:21:58;9.00;99.90
28520;DHT22;15732;48.534;20.382;2023-03-01T16:24:29;8.90;99.90
28520;DHT22;15732;48.534;20.382;2023-03-01T16:26:57;8.80;99.90
28520;DHT22;15732;48.534;20.382;2023-03-01T16:29:24;8.70;99.90
28520;DHT22;15732;48.534;20.382;2023-03-01T16:31:51;8.60;99.90
28520;DHT22;15732;48.534;20.382;2023-03-01T16:34:18;8.50;99.90
28520;DHT22;15732;48.534;20.382;2023-03-01T16:36:51;8.50;99.90
28520;DHT22;15732;48.534;20.382;2023-03-01T16:39:18;8.40;99.90
28520;DHT22;15732;48.534;20.382;2023-03-01T16:41:46;8.40;99.90
28520;DHT22;15732;48.534;20.382;2023-03-01T16:44:13;8.30;99.90
28520;DHT22;15732;48.534;20.382;2023-03-01T16:46:42;8.30;99.90
28520;DHT22;15732;48.534;20.382;2023-03-01T16:49:09;8.10;99.90
28520;DHT22;15732;48.534;20.382;2023-03-01T16:51:36;7.90;99.90
28520;DHT22;15732;48.534;20.382;2023-03-01T16:54:08;7.80;99.90
28520;DHT22;15732;48.534;20.382;2023-03-01T16:56:36;7.80;99.90
28520;DHT22;15732;48.534;20.382;2023-03-01T16:59:05;7.60;99.90
28520;DHT22;15732;48.534;20.382;2023-03-01T17:01:36;7.60;99.90
28520;DHT22;15732;48.534;20.382;2023-03-01T17:04:12;7.50;99.90
28520;DHT22;15732;48.534;20.382;2023-03-01T17:06:40;7.50;99.90
28520;DHT22;15732;48.534;20.382;2023-03-01T17:09:07;7.50;99.90
28520;DHT22;15732;48.534;20.382;2023-03-01T17:11:36;7.40;99.90
28520;DHT22;15732;48.534;20.382;2023-03-01T17:14:03;7.30;99.90
28520;DHT22;15732;48.534;20.382;2023-03-01T17:16:30;7.00;99.90
28520;DHT22;15732;48.534;20.382;2023-03-01T17:19:01;7.00;99.90
28520;DHT22;15732;48.534;20.382;2023-03-01T17:21:29;6.90;99.90
28520;DHT22;15732;48.534;20.382;2023-03-01T17:24:00;6.90;99.90
28520;DHT22;15732;48.534;20.382;2023-03-01T17:26:27;7.00;99.90
28520;DHT22;15732;48.534;20.382;2023-03-01T17:28:55;7.00;99.90
28520;DHT22;15732;48.534;20.382;2023-03-01T17:31:22;6.90;99.90
28520;DHT22;15732;48.534;20.382;2023-03-01T17:33:54;6.80;99.90
28520;DHT22;15732;48.534;20.382;2023-03-01T17:36:24;6.70;99.90
28520;DHT22;15732;48.534;20.382;2023-03-01T17:38:51;6.70;99.90
28520;DHT22;15732;48.534;20.382;2023-03-01T17:41:19;6.70;99.90
28520;DHT22;15732;48.534;20.382;2023-03-01T17:43:47;6.70;99.90
28520;DHT22;15732;48.534;20.382;2023-03-01T17:46:19;6.50;99.90
28520;DHT22;15732;48.534;20.382;2023-03-01T17:48:50;6.50;99.90
28520;DHT22;15732;48.534;20.382;2023-03-01T17:51:17;6.40;99.90
28520;DHT22;15732;48.534;20.382;2023-03-01T17:53:44;6.40;99.90
28520;DHT22;15732;48.534;20.382;2023-03-01T17:56:12;6.40;99.90
28520;DHT22;15732;48.534;20.382;2023-03-01T17:58:39;6.30;99.90
28520;DHT22;15732;48.534;20.382;2023-03-01T18:01:14;6.20;99.90